sensor_id;sensor_type;location;lat;lon;timestamp;temperature;humidity
24103;DHT22;12278;53.058;9.028;2023-05-07T00:02:25;10.80;99.90
24103;DHT22;12278;53.058;9.028;2023-05-07T00:06:33;10.80;99.90
24103;DHT22;12278;53.058;9.028;2023-05-07T00:10:34;10.80;99.90
24103;DHT22;12278;53.058;9.028;2023-05-07T00:14:35;10.90;99.90
24103;DHT22;12278;53.058;9.028;2023-05-07T00:18:35;10.90;99.90
24103;DHT22;12278;53.058;9.028;2023-05-07T00:22:36;10.80;99.90
24103;DHT22;12278;53.058;9.028;2023-05-07T00:26:37;10.80;99.90
24103;DHT22;12278;53.058;9.028;2023-05-07T00:30:37;10.90;99.90
24103;DHT22;12278;53.058;9.028;2023-05-07T00:34:40;10.70;99.90
24103;DHT22;12278;53.058;9.028;2023-05-07T00:38:41;10.60;99.90
24103;DHT22;12278;53.058;9.028;2023-05-07T00:42:41;10.60;99.90
24103;DHT22;12278;53.058;9.028;2023-05-07T00:46:47;10.50;99.90
24103;DHT22;12278;53.058;9.028;2023-05-07T00:50:54;10.50;99.90
24103;DHT22;12278;53.058;9.028;2023-05-07T00:54:55;10.50;99.90
24103;DHT22;12278;53.058;9.028;2023-05-07T00:58:56;10.50;99.90
24103;DHT22;12278;53.058;9.028;2023-05-07T01:02:57;10.40;99.90
24103;DHT22;12278;53.058;9.028;2023-05-07T01:06:59;10.30;99.90
24103;DHT22;12278;53.058;9.028;2023-05-07T01:11:01;10.30;99.90
24103;DHT22;12278;53.058;9.028;2023-05-07T01:15:04;10.20;99.90
24103;DHT22;12278;53.058;9.028;2023-05-07T01:19:05;10.20;99.90
24103;DHT22;12278;53.058;9.028;2023-05-07T01:23:07;10.10;99.90
24103;DHT22;12278;53.058;9.028;2023-05-07T01:27:19;10.20;99.90
24103;DHT22;12278;53.058;9.028;2023-05-07T01:31:20;10.10;99.90
24103;DHT22;12278;53.058;9.028;2023-05-07T01:35:24;10.00;99.90
24103;DHT22;12278;53.058;9.028;2023-05-07T01:39:28;10.00;99.90
24103;DHT22;12278;53.058;9.028;2023-05-07T01:43:30;10.00;99.90
24103;DHT22;12278;53.058;9.028;2023-05-07T01:47:31;10.00;99.90
24103;DHT22;12278;53.058;9.028;2023-05-07T01:51:33;10.00;99.90
24103;DHT22;12278;53.058;9.028;2023-05-07T01:55:33;10.00;99.90
24103;DHT22;12278;53.058;9.028;2023-05-07T01:59:34;10.00;99.90
24103;DHT22;12278;53.058;9.028;2023-05-07T02:03:35;10.00;99.90
24103;DHT22;12278;53.058;9.028;2023-05-07T02:07:36;10.00;99.90
24103;DHT22;12278;53.058;9.028;2023-05-07T02:11:37;10.00;99.90
24103;DHT22;12278;53.058;9.028;2023-05-07T02:15:37;9.90;99.90
24103;DHT22;12278;53.058;9.028;2023-05-07T02:19:38;9.90;99.90
24103;DHT22;12278;53.058;9.028;2023-05-07T02:23:39;9.90;99.90
24103;DHT22;12278;53.058;9.028;2023-05-07T02:27:40;10.00;99.90
24103;DHT22;12278;53.058;9.028;2023-05-07T02:31:40;10.00;99.90
24103;DHT22;12278;53.058;9.028;2023-05-07T02:35:41;10.00;99.90
24103;DHT22;12278;53.058;9.028;2023-05-07T02:39:41;10.00;99.90
24103;DHT22;12278;53.058;9.028;2023-05-07T02:43:42;9.90;99.90
24103;DHT22;12278;53.058;9.028;2023-05-07T02:47:43;9.90;99.90
24103;DHT22;12278;53.058;9.028;2023-05-07T02:51:43;9.80;99.90
24103;DHT22;12278;53.058;9.028;2023-05-07T02:55:44;9.80;99.90
24103;DHT22;12278;53.058;9.028;2023-05-07T02:59:44;9.80;99.90
24103;DHT22;12278;53.058;9.028;2023-05-07T03:03:45;9.90;99.90
24103;DHT22;12278;53.058;9.028;2023-05-07T03:07:46;10.10;99.90
24103;DHT22;12278;53.058;9.028;2023-05-07T03:11:47;10.00;99.90
24103;DHT22;12278;53.058;9.028;2023-05-07T03:15:48;10.10;99.90
24103;DHT22;12278;53.058;9.028;2023-05-07T03:19:49;10.00;99.90
24103;DHT22;12278;53.058;9.028;2023-05-07T03:23:49;9.90;99.90
24103;DHT22;12278;53.058;9.028;2023-05-07T03:27:50;9.80;99.90
24103;DHT22;12278;53.058;9.028;2023-05-07T03:31:51;9.90;99.90
24103;DHT22;12278;53.058;9.028;2023-05-07T03:35:51;9.80;99.90
24103;DHT22;12278;53.058;9.028;2023-05-07T03:39:52;9.80;99.90
24103;DHT22;12278;53.058;9.028;2023-05-07T03:43:52;9.80;99.90
24103;DHT22;12278;53.058;9.028;2023-05-07T03:47:53;9.90;99.90
24103;DHT22;12278;53.058;9.028;2023-05-07T03:51:54;9.80;99.90
24103;DHT22;12278;53.058;9.028;2023-05-07T03:55:55;9.80;99.90
24103;DHT22;12278;53.058;9.028;2023-05-07T03:59:55;9.80;99.90
24103;DHT22;12278;53.058;9.028;2023-05-07T04:03:56;9.90;99.90
24103;DHT22;12278;53.058;9.028;2023-05-07T04:08:00;10.00;99.90
24103;DHT22;12278;53.058;9.028;2023-05-07T04:12:01;10.10;99.90
24103;DHT22;12278;53.058;9.028;2023-05-07T04:16:03;10.00;99.90
24103;DHT22;12278;53.058;9.028;2023-05-07T04:20:04;10.10;99.90
24103;DHT22;12278;53.058;9.028;2023-05-07T04:24:07;10.00;99.90
24103;DHT22;12278;53.058;9.028;2023-05-07T04:28:08;10.10;99.90
24103;DHT22;12278;53.058;9.028;2023-05-07T04:32:09;10.10;99.90
24103;DHT22;12278;53.058;9.028;2023-05-07T04:36:10;10.10;99.90
24103;DHT22;12278;53.058;9.028;2023-05-07T04:40:12;10.10;99.90
24103;DHT22;12278;53.058;9.028;2023-05-07T04:44:13;10.10;99.90
24103;DHT22;12278;53.058;9.028;2023-05-07T04:48:16;10.10;99.90
24103;DHT22;12278;53.058;9.028;2023-05-07T04:52:19;10.10;99.90
24103;DHT22;12278;53.058;9.028;2023-05-07T04:56:20;10.10;99.90
24103;DHT22;12278;53.058;9.028;2023-05-07T05:00:21;10.10;99.90
24103;DHT22;12278;53.058;9.028;2023-05-07T05:04:29;10.20;99.90
24103;DHT22;12278;53.058;9.028;2023-05-07T05:08:30;10.20;99.90
24103;DHT22;12278;53.058;9.028;2023-05-07T05:12:31;10.20;99.90
24103;DHT22;12278;53.058;9.028;2023-05-07T05:16:33;10.30;99.90
24103;DHT22;12278;53.058;9.028;2023-05-07T05:20:35;10.30;99.90
24103;DHT22;12278;53.058;9.028;2023-05-07T05:24:35;10.40;99.90
24103;DHT22;12278;53.058;9.028;2023-05-07T05:28:36;10.30;99.90
24103;DHT22;12278;53.058;9.028;2023-05-07T05:32:37;10.40;99.90
24103;DHT22;12278;53.058;9.028;2023-05-07T05:36:40;10.30;99.90
24103;DHT22;12278;53.058;9.028;2023-05-07T05:40:44;10.30;99.90
24103;DHT22;12278;53.058;9.028;2023-05-07T05:44:45;10.30;99.90
24103;DHT22;12278;53.058;9.028;2023-05-07T05:48:45;10.30;99.90
24103;DHT22;12278;53.058;9.028;2023-05-07T05:52:46;10.30;99.90
24103;DHT22;12278;53.058;9.028;2023-05-07T05:56:47;10.40;99.90
24103;DHT22;12278;53.058;9.028;2023-05-07T06:00:49;10.50;99.90
24103;DHT22;12278;53.058;9.028;2023-05-07T06:04:52;10.50;99.90
24103;DHT22;12278;53.058;9.028;2023-05-07T06:08:52;10.40;99.90
24103;DHT22;12278;53.058;9.028;2023-05-07T06:12:53;10.50;99.90
24103;DHT22;12278;53.058;9.028;2023-05-07T06:16:53;10.40;99.90
24103;DHT22;12278;53.058;9.028;2023-05-07T06:20:54;10.40;99.90
24103;DHT22;12278;53.058;9.028;2023-05-07T06:24:55;10.50;99.90
24103;DHT22;12278;53.058;9.028;2023-05-07T06:28:56;10.50;99.90
24103;DHT22;12278;53.058;9.028;2023-05-07T06:32:57;10.40;99.90
24103;DHT22;12278;53.058;9.028;2023-05-07T06:36:57;10.40;99.90
24103;DHT22;12278;53.058;9.028;2023-05-07T06:40:59;10.40;99.90
24103;DHT22;12278;53.058;9.028;2023-05-07T06:45:00;10.30;99.90
24103;DHT22;12278;53.058;9.028;2023-05-07T06:49:02;10.40;99.90
24103;DHT22;12278;53.058;9.028;2023-05-07T06:53:02;10.50;99.90
24103;DHT22;12278;53.058;9.028;2023-05-07T06:57:03;10.60;99.90
24103;DHT22;12278;53.058;9.028;2023-05-07T07:01:05;10.60;99.90
24103;DHT22;12278;53.058;9.028;2023-05-07T07:05:14;10.70;99.90
24103;DHT22;12278;53.058;9.028;2023-05-07T07:09:15;10.80;99.90
24103;DHT22;12278;53.058;9.028;2023-05-07T07:13:16;11.00;99.90
24103;DHT22;12278;53.058;9.028;2023-05-07T07:17:16;11.00;99.90
24103;DHT22;12278;53.058;9.028;2023-05-07T07:21:17;11.10;99.90
24103;DHT22;12278;53.058;9.028;2023-05-07T07:29:55;11.50;99.90
24103;DHT22;12278;53.058;9.028;2023-05-07T07:38:06;11.40;99.90
24103;DHT22;12278;53.058;9.028;2023-05-07T07:42:07;11.40;99.90
24103;DHT22;12278;53.058;9.028;2023-05-07T07:46:08;11.30;99.90
24103;DHT22;12278;53.058;9.028;2023-05-07T07:50:09;11.30;99.90
24103;DHT22;12278;53.058;9.028;2023-05-07T07:54:09;11.50;99.90
24103;DHT22;12278;53.058;9.028;2023-05-07T07:58:10;11.50;99.90
24103;DHT22;12278;53.058;9.028;2023-05-07T08:02:10;11.60;99.90
24103;DHT22;12278;53.058;9.028;2023-05-07T08:06:11;11.50;99.90
24103;DHT22;12278;53.058;9.028;2023-05-07T08:10:11;11.70;99.90
24103;DHT22;12278;53.058;9.028;2023-05-07T08:14:12;12.00;99.90
24103;DHT22;12278;53.058;9.028;2023-05-07T08:18:12;12.10;99.90
24103;DHT22;12278;53.058;9.028;2023-05-07T08:22:13;12.20;99.90
24103;DHT22;12278;53.058;9.028;2023-05-07T08:26:14;12.30;99.90
24103;DHT22;12278;53.058;9.028;2023-05-07T08:30:14;12.40;99.90
24103;DHT22;12278;53.058;9.028;2023-05-07T08:34:15;12.70;99.90
24103;DHT22;12278;53.058;9.028;2023-05-07T08:38:15;12.90;99.90
24103;DHT22;12278;53.058;9.028;2023-05-07T08:42:16;12.90;99.90
24103;DHT22;12278;53.058;9.028;2023-05-07T08:46:18;12.70;99.90
24103;DHT22;12278;53.058;9.028;2023-05-07T08:50:20;12.70;99.90
24103;DHT22;12278;53.058;9.028;2023-05-07T08:54:27;13.00;99.90
24103;DHT22;12278;53.058;9.028;2023-05-07T08:58:34;13.00;99.90
24103;DHT22;12278;53.058;9.028;2023-05-07T09:02:35;12.90;99.90
24103;DHT22;12278;53.058;9.028;2023-05-07T09:06:35;12.80;99.90
24103;DHT22;12278;53.058;9.028;2023-05-07T09:10:38;12.60;99.90
24103;DHT22;12278;53.058;9.028;2023-05-07T09:14:38;12.80;99.90
24103;DHT22;12278;53.058;9.028;2023-05-07T09:18:42;12.90;99.90
24103;DHT22;12278;53.058;9.028;2023-05-07T09:22:48;13.10;99.90
24103;DHT22;12278;53.058;9.028;2023-05-07T09:26:49;13.10;99.90
24103;DHT22;12278;53.058;9.028;2023-05-07T09:30:49;13.00;99.90
24103;DHT22;12278;53.058;9.028;2023-05-07T09:38:53;13.20;99.90
24103;DHT22;12278;53.058;9.028;2023-05-07T09:42:54;13.30;99.90
24103;DHT22;12278;53.058;9.028;2023-05-07T09:46:54;13.50;99.90
24103;DHT22;12278;53.058;9.028;2023-05-07T09:50:55;13.50;99.90
24103;DHT22;12278;53.058;9.028;2023-05-07T09:55:00;13.70;99.90
24103;DHT22;12278;53.058;9.028;2023-05-07T09:59:03;13.90;99.90
24103;DHT22;12278;53.058;9.028;2023-05-07T10:03:06;13.80;99.90
24103;DHT22;12278;53.058;9.028;2023-05-07T10:07:08;13.60;99.90
24103;DHT22;12278;53.058;9.028;2023-05-07T10:11:10;13.80;99.90
24103;DHT22;12278;53.058;9.028;2023-05-07T10:15:12;13.80;99.90
24103;DHT22;12278;53.058;9.028;2023-05-07T10:19:16;13.50;99.90
24103;DHT22;12278;53.058;9.028;2023-05-07T10:23:22;13.40;99.90
24103;DHT22;12278;53.058;9.028;2023-05-07T10:27:24;13.30;99.90
24103;DHT22;12278;53.058;9.028;2023-05-07T10:35:59;13.40;99.90
24103;DHT22;12278;53.058;9.028;2023-05-07T10:40:01;13.60;99.90
24103;DHT22;12278;53.058;9.028;2023-05-07T10:44:02;14.00;99.90
24103;DHT22;12278;53.058;9.028;2023-05-07T10:52:15;14.80;99.90
24103;DHT22;12278;53.058;9.028;2023-05-07T11:04:25;15.00;99.90
24103;DHT22;12278;53.058;9.028;2023-05-07T11:12:54;15.60;99.90
24103;DHT22;12278;53.058;9.028;2023-05-07T11:17:02;15.60;99.90
24103;DHT22;12278;53.058;9.028;2023-05-07T11:21:03;15.90;99.90
24103;DHT22;12278;53.058;9.028;2023-05-07T11:25:05;15.40;99.90
24103;DHT22;12278;53.058;9.028;2023-05-07T11:29:11;15.40;99.90
24103;DHT22;12278;53.058;9.028;2023-05-07T11:33:12;15.70;99.90
24103;DHT22;12278;53.058;9.028;2023-05-07T11:37:17;16.10;99.90
24103;DHT22;12278;53.058;9.028;2023-05-07T11:41:18;16.30;99.90
24103;DHT22;12278;53.058;9.028;2023-05-07T11:45:23;16.10;99.90
24103;DHT22;12278;53.058;9.028;2023-05-07T11:49:27;16.10;99.90
24103;DHT22;12278;53.058;9.028;2023-05-07T11:53:35;15.90;99.90
24103;DHT22;12278;53.058;9.028;2023-05-07T11:57:36;16.00;99.90
24103;DHT22;12278;53.058;9.028;2023-05-07T12:01:37;16.40;99.90
24103;DHT22;12278;53.058;9.028;2023-05-07T12:05:37;16.30;99.90
24103;DHT22;12278;53.058;9.028;2023-05-07T12:09:42;16.20;99.90
24103;DHT22;12278;53.058;9.028;2023-05-07T12:13:43;16.60;99.90
24103;DHT22;12278;53.058;9.028;2023-05-07T12:17:44;17.00;99.90
24103;DHT22;12278;53.058;9.028;2023-05-07T12:21:45;17.20;99.90
24103;DHT22;12278;53.058;9.028;2023-05-07T12:25:46;17.20;99.90
24103;DHT22;12278;53.058;9.028;2023-05-07T12:29:50;17.10;99.90
24103;DHT22;12278;53.058;9.028;2023-05-07T12:33:50;16.30;99.90
24103;DHT22;12278;53.058;9.028;2023-05-07T12:37:56;16.50;99.90
24103;DHT22;12278;53.058;9.028;2023-05-07T12:42:00;16.40;99.90
24103;DHT22;12278;53.058;9.028;2023-05-07T12:46:05;16.70;99.90
24103;DHT22;12278;53.058;9.028;2023-05-07T12:50:06;17.00;99.90
24103;DHT22;12278;53.058;9.028;2023-05-07T12:54:07;16.70;99.90
24103;DHT22;12278;53.058;9.028;2023-05-07T12:58:08;16.50;99.90
24103;DHT22;12278;53.058;9.028;2023-05-07T13:02:09;16.60;99.90
24103;DHT22;12278;53.058;9.028;2023-05-07T13:06:10;16.70;99.90
24103;DHT22;12278;53.058;9.028;2023-05-07T13:10:12;16.70;99.90
24103;DHT22;12278;53.058;9.028;2023-05-07T13:14:13;16.60;99.90
24103;DHT22;12278;53.058;9.028;2023-05-07T13:18:14;16.80;99.90
24103;DHT22;12278;53.058;9.028;2023-05-07T13:22:14;16.80;99.90
24103;DHT22;12278;53.058;9.028;2023-05-07T13:26:15;16.80;99.90
24103;DHT22;12278;53.058;9.028;2023-05-07T13:30:15;16.90;99.90
24103;DHT22;12278;53.058;9.028;2023-05-07T13:34:16;17.00;99.90
24103;DHT22;12278;53.058;9.028;2023-05-07T13:38:19;17.20;99.90
24103;DHT22;12278;53.058;9.028;2023-05-07T13:42:21;17.30;99.90
24103;DHT22;12278;53.058;9.028;2023-05-07T13:46:22;17.70;99.90
24103;DHT22;12278;53.058;9.028;2023-05-07T13:50:23;18.00;99.90
24103;DHT22;12278;53.058;9.028;2023-05-07T13:54:23;18.60;99.90
24103;DHT22;12278;53.058;9.028;2023-05-07T13:58:24;19.40;99.90
24103;DHT22;12278;53.058;9.028;2023-05-07T14:02:25;19.90;99.90
24103;DHT22;12278;53.058;9.028;2023-05-07T14:06:25;20.90;99.90
24103;DHT22;12278;53.058;9.028;2023-05-07T14:10:27;20.00;99.90
24103;DHT22;12278;53.058;9.028;2023-05-07T14:14:28;20.00;99.90
24103;DHT22;12278;53.058;9.028;2023-05-07T14:18:30;20.10;99.90
24103;DHT22;12278;53.058;9.028;2023-05-07T14:22:31;21.00;99.60
24103;DHT22;12278;53.058;9.028;2023-05-07T14:26:32;21.30;99.00
24103;DHT22;12278;53.058;9.028;2023-05-07T14:30:33;21.90;98.80
24103;DHT22;12278;53.058;9.028;2023-05-07T14:34:33;22.10;96.70
24103;DHT22;12278;53.058;9.028;2023-05-07T14:38:34;22.60;97.00
24103;DHT22;12278;53.058;9.028;2023-05-07T14:42:36;21.70;97.00
24103;DHT22;12278;53.058;9.028;2023-05-07T14:47:04;20.20;98.90
24103;DHT22;12278;53.058;9.028;2023-05-07T14:51:05;18.50;99.90
24103;DHT22;12278;53.058;9.028;2023-05-07T14:55:08;17.90;99.90
24103;DHT22;12278;53.058;9.028;2023-05-07T14:59:09;18.20;99.90
24103;DHT22;12278;53.058;9.028;2023-05-07T15:03:10;18.60;99.90
24103;DHT22;12278;53.058;9.028;2023-05-07T15:07:14;19.70;99.90
24103;DHT22;12278;53.058;9.028;2023-05-07T15:11:15;19.70;99.90
24103;DHT22;12278;53.058;9.028;2023-05-07T15:15:17;22.10;99.20
24103;DHT22;12278;53.058;9.028;2023-05-07T15:19:18;22.90;95.90
24103;DHT22;12278;53.058;9.028;2023-05-07T15:23:19;21.50;97.30
24103;DHT22;12278;53.058;9.028;2023-05-07T15:27:19;19.40;99.90
24103;DHT22;12278;53.058;9.028;2023-05-07T15:31:20;18.20;99.90
24103;DHT22;12278;53.058;9.028;2023-05-07T15:35:21;17.70;99.90
24103;DHT22;12278;53.058;9.028;2023-05-07T15:39:22;17.70;99.90
24103;DHT22;12278;53.058;9.028;2023-05-07T15:43:23;17.60;99.90
24103;DHT22;12278;53.058;9.028;2023-05-07T15:47:23;17.30;99.90
24103;DHT22;12278;53.058;9.028;2023-05-07T15:51:24;17.00;99.90
24103;DHT22;12278;53.058;9.028;2023-05-07T15:55:24;17.30;99.90
24103;DHT22;12278;53.058;9.028;2023-05-07T15:59:25;17.40;99.90
24103;DHT22;12278;53.058;9.028;2023-05-07T16:03:26;17.80;99.90
24103;DHT22;12278;53.058;9.028;2023-05-07T16:07:28;18.20;99.90
24103;DHT22;12278;53.058;9.028;2023-05-07T16:11:28;20.00;99.90
24103;DHT22;12278;53.058;9.028;2023-05-07T16:15:33;20.20;99.90
24103;DHT22;12278;53.058;9.028;2023-05-07T16:19:34;21.60;99.30
24103;DHT22;12278;53.058;9.028;2023-05-07T16:23:34;22.20;97.80
24103;DHT22;12278;53.058;9.028;2023-05-07T16:27:35;21.40;97.10
24103;DHT22;12278;53.058;9.028;2023-05-07T16:31:37;20.30;98.40
24103;DHT22;12278;53.058;9.028;2023-05-07T16:35:38;19.70;99.40
24103;DHT22;12278;53.058;9.028;2023-05-07T16:39:38;19.80;99.60
24103;DHT22;12278;53.058;9.028;2023-05-07T16:43:42;19.80;99.70
24103;DHT22;12278;53.058;9.028;2023-05-07T16:47:44;19.10;99.90
24103;DHT22;12278;53.058;9.028;2023-05-07T16:51:45;18.20;99.90
24103;DHT22;12278;53.058;9.028;2023-05-07T16:55:46;17.80;99.90
24103;DHT22;12278;53.058;9.028;2023-05-07T16:59:47;17.60;99.90
24103;DHT22;12278;53.058;9.028;2023-05-07T17:03:48;17.70;99.90
24103;DHT22;12278;53.058;9.028;2023-05-07T17:07:50;17.30;99.90
24103;DHT22;12278;53.058;9.028;2023-05-07T17:11:51;16.90;99.90
24103;DHT22;12278;53.058;9.028;2023-05-07T17:15:53;17.00;99.90
24103;DHT22;12278;53.058;9.028;2023-05-07T17:19:54;16.50;99.90
24103;DHT22;12278;53.058;9.028;2023-05-07T17:23:55;16.30;99.90
24103;DHT22;12278;53.058;9.028;2023-05-07T17:27:55;16.10;99.90
24103;DHT22;12278;53.058;9.028;2023-05-07T17:31:56;15.90;99.90
24103;DHT22;12278;53.058;9.028;2023-05-07T17:35:57;15.70;99.90
24103;DHT22;12278;53.058;9.028;2023-05-07T17:39:57;15.60;99.90
24103;DHT22;12278;53.058;9.028;2023-05-07T17:43:58;15.60;99.90
24103;DHT22;12278;53.058;9.028;2023-05-07T17:47:58;15.60;99.90
24103;DHT22;12278;53.058;9.028;2023-05-07T17:52:03;15.50;99.90
24103;DHT22;12278;53.058;9.028;2023-05-07T17:56:04;15.50;99.90
24103;DHT22;12278;53.058;9.028;2023-05-07T18:00:06;15.40;99.90
24103;DHT22;12278;53.058;9.028;2023-05-07T18:04:08;15.40;99.90
24103;DHT22;12278;53.058;9.028;2023-05-07T18:08:09;15.30;99.90
24103;DHT22;12278;53.058;9.028;2023-05-07T18:12:09;15.20;99.90
24103;DHT22;12278;53.058;9.028;2023-05-07T18:16:12;15.20;99.90
24103;DHT22;12278;53.058;9.028;2023-05-07T18:20:14;15.20;99.90
24103;DHT22;12278;53.058;9.028;2023-05-07T18:24:14;15.10;99.90
24103;DHT22;12278;53.058;9.028;2023-05-07T18:28:15;15.00;99.90
24103;DHT22;12278;53.058;9.028;2023-05-07T18:32:16;14.90;99.90
24103;DHT22;12278;53.058;9.028;2023-05-07T18:36:17;14.80;99.90
24103;DHT22;12278;53.058;9.028;2023-05-07T18:40:17;14.70;99.90
24103;DHT22;12278;53.058;9.028;2023-05-07T18:44:20;14.70;99.90
24103;DHT22;12278;53.058;9.028;2023-05-07T18:48:20;14.60;99.90
24103;DHT22;12278;53.058;9.028;2023-05-07T18:52:21;14.50;99.90
24103;DHT22;12278;53.058;9.028;2023-05-07T18:56:22;14.40;99.90
24103;DHT22;12278;53.058;9.028;2023-05-07T19:00:22;14.40;99.90
24103;DHT22;12278;53.058;9.028;2023-05-07T19:04:23;14.30;99.90
24103;DHT22;12278;53.058;9.028;2023-05-07T19:08:23;14.20;99.90
24103;DHT22;12278;53.058;9.028;2023-05-07T19:12:24;14.10;99.90
24103;DHT22;12278;53.058;9.028;2023-05-07T19:16:25;14.00;99.90
24103;DHT22;12278;53.058;9.028;2023-05-07T19:20:25;13.90;99.90
24103;DHT22;12278;53.058;9.028;2023-05-07T19:24:26;13.80;99.90
24103;DHT22;12278;53.058;9.028;2023-05-07T19:28:27;13.80;99.90
24103;DHT22;12278;53.058;9.028;2023-05-07T19:32:27;13.70;99.90
24103;DHT22;12278;53.058;9.028;2023-05-07T19:36:31;13.50;99.90
24103;DHT22;12278;53.058;9.028;2023-05-07T19:40:33;13.50;99.90
24103;DHT22;12278;53.058;9.028;2023-05-07T19:44:34;13.40;99.90
24103;DHT22;12278;53.058;9.028;2023-05-07T19:48:35;13.40;99.90
24103;DHT22;12278;53.058;9.028;2023-05-07T19:52:38;13.40;99.90
24103;DHT22;12278;53.058;9.028;2023-05-07T19:56:39;13.20;99.90
24103;DHT22;12278;53.058;9.028;2023-05-07T20:00:44;13.20;99.90
24103;DHT22;12278;53.058;9.028;2023-05-07T20:04:45;13.20;99.90
24103;DHT22;12278;53.058;9.028;2023-05-07T20:08:45;13.10;99.90
24103;DHT22;12278;53.058;9.028;2023-05-07T20:12:46;13.00;99.90
24103;DHT22;12278;53.058;9.028;2023-05-07T20:16:46;13.00;99.90
24103;DHT22;12278;53.058;9.028;2023-05-07T20:20:47;12.90;99.90
24103;DHT22;12278;53.058;9.028;2023-05-07T20:24:48;12.80;99.90
24103;DHT22;12278;53.058;9.028;2023-05-07T20:28:48;12.70;99.90
24103;DHT22;12278;53.058;9.028;2023-05-07T20:32:49;12.70;99.90
24103;DHT22;12278;53.058;9.028;2023-05-07T20:36:50;12.70;99.90
24103;DHT22;12278;53.058;9.028;2023-05-07T20:40:51;12.60;99.90
24103;DHT22;12278;53.058;9.028;2023-05-07T20:44:52;12.50;99.90
24103;DHT22;12278;53.058;9.028;2023-05-07T20:48:53;12.60;99.90
24103;DHT22;12278;53.058;9.028;2023-05-07T20:52:53;12.50;99.90
24103;DHT22;12278;53.058;9.028;2023-05-07T20:56:54;12.50;99.90
24103;DHT22;12278;53.058;9.028;2023-05-07T21:00:56;12.50;99.90
24103;DHT22;12278;53.058;9.028;2023-05-07T21:04:57;12.40;99.90
24103;DHT22;12278;53.058;9.028;2023-05-07T21:08:57;12.30;99.90
24103;DHT22;12278;53.058;9.028;2023-05-07T21:12:58;12.30;99.90
24103;DHT22;12278;53.058;9.028;2023-05-07T21:16:59;12.10;99.90
24103;DHT22;12278;53.058;9.028;2023-05-07T21:20:59;12.10;99.90
24103;DHT22;12278;53.058;9.028;2023-05-07T21:25:00;12.20;99.90
24103;DHT22;12278;53.058;9.028;2023-05-07T21:29:00;12.10;99.90
24103;DHT22;12278;53.058;9.028;2023-05-07T21:33:01;12.00;99.90
24103;DHT22;12278;53.058;9.028;2023-05-07T21:37:02;12.00;99.90
24103;DHT22;12278;53.058;9.028;2023-05-07T21:41:04;11.90;99.90
24103;DHT22;12278;53.058;9.028;2023-05-07T21:45:04;11.90;99.90
24103;DHT22;12278;53.058;9.028;2023-05-07T21:49:05;11.80;99.90
24103;DHT22;12278;53.058;9.028;2023-05-07T21:53:06;11.80;99.90
24103;DHT22;12278;53.058;9.028;2023-05-07T21:57:07;11.80;99.90
24103;DHT22;12278;53.058;9.028;2023-05-07T22:01:07;11.70;99.90
24103;DHT22;12278;53.058;9.028;2023-05-07T22:05:11;11.70;99.90
24103;DHT22;12278;53.058;9.028;2023-05-07T22:09:12;11.70;99.90
24103;DHT22;12278;53.058;9.028;2023-05-07T22:13:15;11.60;99.90
24103;DHT22;12278;53.058;9.028;2023-05-07T22:17:16;11.60;99.90
24103;DHT22;12278;53.058;9.028;2023-05-07T22:21:16;11.60;99.90
24103;DHT22;12278;53.058;9.028;2023-05-07T22:25:17;11.50;99.90
24103;DHT22;12278;53.058;9.028;2023-05-07T22:29:18;11.40;99.90
24103;DHT22;12278;53.058;9.028;2023-05-07T22:33:20;11.40;99.90
24103;DHT22;12278;53.058;9.028;2023-05-07T22:37:20;11.30;99.90
24103;DHT22;12278;53.058;9.028;2023-05-07T22:41:21;11.40;99.90
24103;DHT22;12278;53.058;9.028;2023-05-07T22:45:23;11.40;99.90
24103;DHT22;12278;53.058;9.028;2023-05-07T22:49:23;11.40;99.90
24103;DHT22;12278;53.058;9.028;2023-05-07T22:53:24;11.30;99.90
24103;DHT22;12278;53.058;9.028;2023-05-07T22:57:25;11.30;99.90
24103;DHT22;12278;53.058;9.028;2023-05-07T23:01:27;11.30;99.90
24103;DHT22;12278;53.058;9.028;2023-05-07T23:05:28;11.20;99.90
24103;DHT22;12278;53.058;9.028;2023-05-07T23:09:28;11.20;99.90
24103;DHT22;12278;53.058;9.028;2023-05-07T23:13:29;11.20;99.90
24103;DHT22;12278;53.058;9.028;2023-05-07T23:17:30;11.20;99.90
24103;DHT22;12278;53.058;9.028;2023-05-07T23:21:32;11.20;99.90
24103;DHT22;12278;53.058;9.028;2023-05-07T23:25:33;11.10;99.90
24103;DHT22;12278;53.058;9.028;2023-05-07T23:29:34;11.00;99.90
24103;DHT22;12278;53.058;9.028;2023-05-07T23:33:35;11.00;99.90
24103;DHT22;12278;53.058;9.028;2023-05-07T23:37:36;11.00;99.90
24103;DHT22;12278;53.058;9.028;2023-05-07T23:41:36;11.00;99.90
24103;DHT22;12278;53.058;9.028;2023-05-07T23:45:37;10.90;99.90
24103;DHT22;12278;53.058;9.028;2023-05-07T23:49:38;10.90;99.90
24103;DHT22;12278;53.058;9.028;2023-05-07T23:53:38;10.90;99.90
24103;DHT22;12278;53.058;9.028;2023-05-07T23:57:39;10.80;99.90
